Time;durP1;ratioP1;P1;durP2;ratioP2;P2;SDS_P1;SDS_P2;PMS_P1;PMS_P2;Temp;Humidity;BMP_temperature;BMP_pressure;BME280_temperature;BME280_humidity;BME280_pressure;Samples;Min_cycle;Max_cycle;Signal;HPM_P1;HPM_P2
2023/04/08 00:00:43;;;;;;;26.08;13.20;;;;;;;9.61;79.42;102161.22;5075992;28;20024;-88
2023/04/08 00:03:09;;;;;;;30.55;13.00;;;;;;;9.60;79.47;102150.66;5079692;28;20112;-89
2023/04/08 00:05:34;;;;;;;23.45;12.45;;;;;;;9.65;79.55;102165.56;5081569;28;20739;-88
2023/04/08 00:07:59;;;;;;;25.95;13.25;;;;;;;9.68;79.74;102160.22;5084374;28;20032;-88
2023/04/08 00:10:25;;;;;;;25.90;13.15;;;;;;;9.71;79.96;102164.59;5084986;28;20127;-89
2023/04/08 00:12:51;;;;;;;29.23;13.18;;;;;;;9.72;79.84;102161.06;5092965;27;20048;-88
2023/04/08 00:15:16;;;;;;;32.20;13.93;;;;;;;9.68;79.50;102165.50;5086892;28;20390;-88
2023/04/08 00:17:42;;;;;;;25.27;14.05;;;;;;;9.73;80.36;102162.78;5078980;28;20230;-88
2023/04/08 00:20:08;;;;;;;31.50;13.13;;;;;;;9.73;79.49;102165.44;5074880;28;20021;-88
2023/04/08 00:22:35;;;;;;;26.25;13.43;;;;;;;9.69;80.03;102156.69;5075314;28;20029;-89
2023/04/08 00:25:01;;;;;;;27.92;13.75;;;;;;;9.76;79.51;102157.47;5082513;28;20584;-88
2023/04/08 00:27:27;;;;;;;23.70;13.82;;;;;;;9.75;79.53;102166.31;5093474;28;20024;-88
2023/04/08 00:29:52;;;;;;;27.60;14.23;;;;;;;9.68;79.93;102151.44;5078564;28;20039;-88
2023/04/08 00:32:17;;;;;;;30.85;14.35;;;;;;;9.70;80.09;102150.53;5092084;28;20028;-88
2023/04/08 00:34:42;;;;;;;29.85;14.23;;;;;;;9.77;80.12;102163.63;5084479;28;20036;-87
2023/04/08 00:37:08;;;;;;;26.67;14.13;;;;;;;9.75;79.88;102160.16;5081401;28;20051;-88
2023/04/08 00:39:34;;;;;;;29.00;15.23;;;;;;;9.77;79.57;102158.34;5078170;28;20032;-88
2023/04/08 00:42:00;;;;;;;33.25;14.60;;;;;;;9.77;79.36;102153.06;5081931;28;20086;-89
2023/04/08 00:44:26;;;;;;;28.02;13.98;;;;;;;9.77;79.72;102164.50;5076099;28;20081;-87
2023/04/08 00:46:51;;;;;;;29.48;14.75;;;;;;;9.74;80.08;102159.25;5079880;28;20513;-87
2023/04/08 00:49:17;;;;;;;31.27;14.68;;;;;;;9.73;79.81;102159.28;5075929;28;20032;-89
2023/04/08 00:51:42;;;;;;;28.58;13.80;;;;;;;9.75;79.97;102176.00;5073374;28;20383;-88
2023/04/08 00:54:07;;;;;;;31.27;15.32;;;;;;;9.76;80.08;102173.31;5081447;28;20479;-88
2023/04/08 00:56:33;;;;;;;32.95;15.23;;;;;;;9.70;80.23;102161.09;5085584;28;20053;-89
2023/04/08 00:59:00;;;;;;;28.60;15.50;;;;;;;9.72;80.02;102168.97;5076291;28;20039;-88
2023/04/08 01:01:49;;;;;;;34.28;15.70;;;;;;;9.77;80.26;102171.53;5084804;28;20040;-89
2023/04/08 01:04:43;;;;;;;41.13;16.42;;;;;;;9.78;80.26;102173.28;5082493;28;20069;-88
2023/04/08 01:07:20;;;;;;;31.83;16.77;;;;;;;9.74;80.58;102167.16;5087081;28;20080;-88
2023/04/08 01:09:53;;;;;;;36.47;15.38;;;;;;;9.73;81.18;102173.34;5096563;27;20028;-88
2023/04/08 01:12:27;;;;;;;30.67;16.05;;;;;;;9.69;80.86;102175.16;5079168;28;20082;-88
2023/04/08 01:15:07;;;;;;;36.22;16.02;;;;;;;9.75;81.03;102174.22;5074891;28;20032;-86
2023/04/08 01:17:33;;;;;;;34.17;15.73;;;;;;;9.73;81.49;102176.00;5072201;28;20012;-88
2023/04/08 01:20:00;;;;;;;40.60;17.00;;;;;;;9.69;81.24;102167.25;5073148;28;20486;-88
2023/04/08 01:22:41;;;;;;;37.40;16.58;;;;;;;9.72;81.79;102171.63;5074519;28;20274;-87
2023/04/08 01:25:13;;;;;;;38.92;16.73;;;;;;;9.74;81.41;102179.50;5078850;28;20043;-88
2023/04/08 01:27:39;;;;;;;41.17;17.30;;;;;;;9.68;81.21;102175.19;5068539;28;20030;-87
2023/04/08 01:30:07;;;;;;;38.03;16.65;;;;;;;9.73;81.39;102175.13;5069312;28;20111;-87
2023/04/08 01:32:33;;;;;;;40.25;17.88;;;;;;;9.72;81.93;102182.19;5092385;28;20118;-87
2023/04/08 01:35:00;;;;;;;39.08;18.10;;;;;;;9.70;82.09;102179.56;5082977;28;20671;-87
2023/04/08 01:37:28;;;;;;;45.92;18.48;;;;;;;9.69;82.38;102177.81;5069516;28;20488;-88
2023/04/08 01:39:54;;;;;;;45.25;17.38;;;;;;;9.70;82.15;102182.22;5073099;28;20086;-87
2023/04/08 01:42:22;;;;;;;48.47;16.73;;;;;;;9.65;82.72;102184.06;5077598;28;20111;-87
2023/04/08 01:44:49;;;;;;;42.65;17.98;;;;;;;9.65;82.50;102191.97;5072668;28;20142;-88
2023/04/08 01:47:15;;;;;;;39.00;18.90;;;;;;;9.64;83.07;102187.56;5076639;28;20495;-87
2023/04/08 01:49:41;;;;;;;35.35;17.48;;;;;;;9.68;82.81;102191.91;5076778;28;20104;-88
2023/04/08 01:52:08;;;;;;;37.10;18.60;;;;;;;9.67;82.77;102189.31;5081718;28;20025;-88
2023/04/08 01:54:34;;;;;;;43.55;17.52;;;;;;;9.64;83.00;102186.69;5080212;28;20013;-88
2023/04/08 01:57:03;;;;;;;41.03;17.67;;;;;;;9.59;82.79;102178.84;5073197;28;20035;-88
2023/04/08 01:59:33;;;;;;;41.38;17.15;;;;;;;9.61;82.94;102187.63;5083517;28;20101;-88
2023/04/08 02:02:01;;;;;;;40.10;17.50;;;;;;;9.60;83.24;102182.34;5079344;28;20024;-88
2023/04/08 02:04:26;;;;;;;36.78;16.63;;;;;;;9.63;82.78;102182.31;5076406;28;20028;-88
2023/04/08 02:06:51;;;;;;;40.83;17.92;;;;;;;9.67;82.91;102190.16;5081339;28;20043;-87
2023/04/08 02:09:17;;;;;;;40.00;17.38;;;;;;;9.65;82.86;102185.78;5078492;28;20040;-88
2023/04/08 02:11:42;;;;;;;41.25;18.05;;;;;;;9.66;83.32;102187.56;5081320;28;20040;-88
2023/04/08 02:14:07;;;;;;;37.05;17.88;;;;;;;9.71;82.27;102193.66;5087157;28;20068;-88
2023/04/08 02:16:41;;;;;;;42.00;17.90;;;;;;;9.68;82.95;102193.69;5083879;28;20035;-88
2023/04/08 02:19:15;;;;;;;43.83;17.27;;;;;;;9.70;83.18;102194.56;5076890;28;21142;-88
2023/04/08 02:21:47;;;;;;;45.75;17.73;;;;;;;9.67;82.73;102195.44;5074467;28;20037;-88
2023/04/08 02:24:15;;;;;;;35.78;17.00;;;;;;;9.64;83.20;102191.97;5082498;28;20364;-88
2023/04/08 02:26:42;;;;;;;39.60;18.15;;;;;;;9.66;83.21;102199.00;5081221;28;20121;-88
2023/04/08 02:29:11;;;;;;;45.65;18.40;;;;;;;9.66;83.18;102188.44;5079881;28;20487;-88
2023/04/08 02:31:40;;;;;;;37.88;17.83;;;;;;;9.67;83.01;102202.50;5077322;28;20103;-88
2023/04/08 02:34:08;;;;;;;40.55;17.58;;;;;;;9.65;83.10;102194.63;5079490;28;20020;-88
2023/04/08 02:36:34;;;;;;;43.00;18.98;;;;;;;9.70;83.13;102199.84;5079601;28;20121;-88
2023/04/08 02:38:59;;;;;;;41.60;17.88;;;;;;;9.70;82.62;102197.19;5069293;28;20555;-88
2023/04/08 02:41:28;;;;;;;38.45;17.88;;;;;;;9.70;82.28;102203.34;5078367;28;20016;-89
2023/04/08 02:43:54;;;;;;;46.88;17.98;;;;;;;9.64;83.32;102198.13;5082203;28;20162;-87
2023/04/08 02:46:20;;;;;;;35.78;16.30;;;;;;;9.65;82.12;102197.25;5087524;28;20475;-88
2023/04/08 02:48:45;;;;;;;38.03;18.73;;;;;;;9.64;82.66;102207.81;5078085;28;20032;-88
2023/04/08 02:51:10;;;;;;;41.28;18.27;;;;;;;9.64;83.15;102202.53;5096680;28;20504;-88
2023/04/08 02:53:35;;;;;;;37.78;18.73;;;;;;;9.64;82.30;102205.19;5082804;28;20025;-88
2023/04/08 02:56:01;;;;;;;45.22;20.92;;;;;;;9.62;82.54;102202.56;5077333;28;20036;-89
2023/04/08 02:58:26;;;;;;;54.30;20.45;;;;;;;9.64;83.16;102205.19;5075225;28;20033;-88
2023/04/08 03:00:51;;;;;;;44.47;19.95;;;;;;;9.61;83.16;102214.03;5072309;28;20476;-89
2023/04/08 03:03:17;;;;;;;50.53;21.00;;;;;;;9.61;83.81;102206.13;5070141;28;20056;-88
2023/04/08 03:05:42;;;;;;;39.63;18.63;;;;;;;9.63;83.50;102212.22;5084862;28;20418;-89
2023/04/08 03:08:07;;;;;;;44.50;19.30;;;;;;;9.58;83.66;102211.44;5077487;28;20048;-88
2023/04/08 03:10:32;;;;;;;40.30;18.48;;;;;;;9.52;83.82;102197.44;5081771;28;20047;-89
2023/04/08 03:12:58;;;;;;;42.92;19.15;;;;;;;9.53;83.97;102204.47;5089435;28;20407;-88
2023/04/08 03:15:23;;;;;;;47.53;18.63;;;;;;;9.53;84.00;102207.97;5078861;28;20400;-88
2023/04/08 03:17:49;;;;;;;43.90;19.45;;;;;;;9.52;84.12;102208.00;5085326;28;20039;-89
2023/04/08 03:20:14;;;;;;;43.22;19.25;;;;;;;9.54;83.70;102214.13;5086441;28;20376;-88
2023/04/08 03:22:39;;;;;;;46.45;18.80;;;;;;;9.47;84.09;102207.22;5089944;28;20032;-87
2023/04/08 03:25:05;;;;;;;38.92;19.60;;;;;;;9.42;84.25;102205.50;5085977;28;20028;-89
2023/04/08 03:27:30;;;;;;;47.13;19.45;;;;;;;9.34;84.14;102204.72;5074688;28;20468;-88
2023/04/08 03:29:56;;;;;;;39.90;18.10;;;;;;;9.31;84.44;102211.78;5082080;28;20119;-88
2023/04/08 03:32:22;;;;;;;42.65;19.40;;;;;;;9.32;84.57;102210.91;5083915;28;20428;-88
2023/04/08 03:34:49;;;;;;;38.15;17.88;;;;;;;9.28;83.13;102207.44;5091041;27;20566;-89
2023/04/08 03:37:15;;;;;;;36.17;16.83;;;;;;;9.26;82.38;102208.34;5083295;28;20270;-88
2023/04/08 03:39:41;;;;;;;39.25;17.77;;;;;;;9.15;82.75;102201.44;5078784;28;20028;-88
2023/04/08 03:42:06;;;;;;;48.58;19.08;;;;;;;9.06;84.54;102201.56;5082740;28;20496;-88
2023/04/08 03:44:31;;;;;;;40.40;18.10;;;;;;;8.96;83.96;102206.97;5086283;28;20078;-88
2023/04/08 03:46:56;;;;;;;37.58;18.00;;;;;;;8.93;84.62;102218.41;5085063;28;20475;-88
2023/04/08 03:49:22;;;;;;;32.85;16.50;;;;;;;8.89;83.23;102212.28;5084614;28;20028;-88
2023/04/08 03:51:47;;;;;;;43.35;21.10;;;;;;;8.94;84.84;102213.09;5076389;28;20537;-88
2023/04/08 03:54:12;;;;;;;42.08;16.98;;;;;;;8.91;84.35;102212.28;5082011;28;20040;-88
2023/04/08 03:56:38;;;;;;;35.58;16.95;;;;;;;8.73;83.33;102210.72;5072831;28;20103;-88
2023/04/08 03:59:03;;;;;;;39.40;19.35;;;;;;;8.72;84.43;102216.91;5078404;28;20043;-88
2023/04/08 04:01:31;;;;;;;42.20;18.73;;;;;;;8.76;84.52;102225.63;5078861;28;20020;-88
2023/04/08 04:03:56;;;;;;;41.95;17.70;;;;;;;8.78;84.47;102223.84;5077190;28;20039;-88
2023/04/08 04:06:22;;;;;;;32.92;16.35;;;;;;;8.79;82.89;102226.47;5082250;28;20024;-88
2023/04/08 04:08:48;;;;;;;40.58;18.88;;;;;;;8.80;83.55;102228.22;5082219;28;20038;-88
2023/04/08 04:11:14;;;;;;;41.47;18.63;;;;;;;8.86;83.74;102219.34;5084521;28;20185;-89
2023/04/08 04:13:39;;;;;;;42.03;18.50;;;;;;;8.84;83.91;102224.66;5069563;28;20036;-88
2023/04/08 04:16:04;;;;;;;28.38;15.23;;;;;;;8.80;82.50;102227.34;5083384;28;20020;-88
2023/04/08 04:18:30;;;;;;;34.42;15.85;;;;;;;8.72;82.62;102230.06;5069786;28;20029;-88
2023/04/08 04:20:55;;;;;;;29.38;14.98;;;;;;;8.68;82.98;102231.00;5075316;28;20029;-87
2023/04/08 04:23:23;;;;;;;34.55;18.00;;;;;;;8.67;84.24;102232.75;5098168;28;20100;-88
2023/04/08 04:25:48;;;;;;;34.53;16.60;;;;;;;8.61;83.81;102229.28;5087127;28;20020;-88
2023/04/08 04:28:13;;;;;;;33.20;15.93;;;;;;;8.61;84.18;102235.44;5091851;28;20123;-88
2023/04/08 04:30:39;;;;;;;37.00;17.60;;;;;;;8.63;84.47;102238.94;5078092;28;20024;-89
2023/04/08 04:33:05;;;;;;;29.13;14.60;;;;;;;8.60;84.03;102248.63;5089364;28;20042;-89
2023/04/08 04:35:30;;;;;;;35.17;17.02;;;;;;;8.58;83.56;102242.50;5078471;28;20111;-88
2023/04/08 04:37:56;;;;;;;34.72;18.73;;;;;;;8.60;83.68;102246.00;5076733;28;20534;-88
2023/04/08 04:40:21;;;;;;;38.22;18.50;;;;;;;8.65;83.36;102254.75;5077583;28;20447;-89
2023/04/08 04:42:47;;;;;;;29.60;15.27;;;;;;;8.65;83.78;102260.00;5077855;28;20032;-88
2023/04/08 04:45:12;;;;;;;28.77;13.77;;;;;;;8.60;82.64;102260.06;5082667;28;20049;-88
2023/04/08 04:47:38;;;;;;;25.67;13.40;;;;;;;8.65;82.96;102267.91;5068756;28;20095;-88
2023/04/08 04:50:04;;;;;;;26.15;14.50;;;;;;;8.65;82.72;102270.56;5082989;28;20379;-87
2023/04/08 04:52:30;;;;;;;25.35;14.57;;;;;;;8.70;83.22;102266.13;5105666;27;20044;-88
2023/04/08 04:54:57;;;;;;;27.85;15.50;;;;;;;8.68;82.71;102263.50;5074066;28;20025;-88
2023/04/08 04:57:22;;;;;;;29.38;14.30;;;;;;;8.74;83.62;102266.97;5081178;28;20058;-88
2023/04/08 04:59:47;;;;;;;33.28;17.52;;;;;;;8.81;83.15;102268.63;5085140;28;20056;-88
2023/04/08 05:02:13;;;;;;;41.28;19.10;;;;;;;8.81;82.86;102273.91;5084083;28;20048;-88
2023/04/08 05:04:38;;;;;;;32.22;16.13;;;;;;;8.83;82.95;102274.78;5084798;28;20441;-88
2023/04/08 05:07:03;;;;;;;35.03;15.73;;;;;;;8.85;83.80;102275.63;5076999;28;20089;-87
2023/04/08 05:09:29;;;;;;;33.42;16.80;;;;;;;8.87;83.39;102285.28;5078732;28;20430;-88
2023/04/08 05:11:55;;;;;;;34.65;17.40;;;;;;;8.86;84.01;102278.28;5078104;28;20036;-88
2023/04/08 05:14:20;;;;;;;31.02;15.35;;;;;;;8.90;83.50;102285.25;5080125;28;20036;-89
2023/04/08 05:16:45;;;;;;;36.53;18.05;;;;;;;8.94;83.17;102291.38;5075154;28;20052;-88
2023/04/08 05:19:11;;;;;;;35.53;16.77;;;;;;;8.94;83.27;102294.00;5086248;28;20025;-88
2023/04/08 05:21:36;;;;;;;34.65;18.00;;;;;;;8.96;83.38;102292.25;5073424;28;20020;-89
2023/04/08 05:24:01;;;;;;;42.97;20.17;;;;;;;8.97;84.09;102296.63;5079067;28;20438;-88
2023/04/08 05:26:26;;;;;;;46.53;21.27;;;;;;;8.94;84.66;102292.22;5074406;28;20024;-88
2023/04/08 05:28:52;;;;;;;48.28;20.10;;;;;;;8.94;84.89;102291.38;5072288;28;20464;-89
2023/04/08 05:31:18;;;;;;;52.38;21.42;;;;;;;8.97;84.46;102290.47;5073910;28;20235;-89
2023/04/08 05:33:44;;;;;;;54.05;22.40;;;;;;;8.97;84.99;102299.25;5081852;28;20028;-88
2023/04/08 05:36:10;;;;;;;57.72;20.73;;;;;;;8.92;84.80;102293.16;5090155;28;20031;-88
2023/04/08 05:38:35;;;;;;;52.13;22.10;;;;;;;8.93;84.34;102285.22;5087827;28;20135;-88
2023/04/08 05:41:01;;;;;;;44.63;19.48;;;;;;;9.03;84.85;102293.03;5083648;28;20118;-89
2023/04/08 05:43:26;;;;;;;47.65;20.83;;;;;;;9.04;84.37;102303.56;5078329;28;20081;-89
2023/04/08 05:45:51;;;;;;;46.53;21.90;;;;;;;9.11;84.55;102312.31;5075452;28;20063;-89
2023/04/08 05:48:17;;;;;;;42.88;19.92;;;;;;;9.12;84.37;102309.66;5077401;28;20479;-88
2023/04/08 05:50:42;;;;;;;42.00;20.52;;;;;;;9.17;84.59;102302.53;5089802;28;20020;-88
2023/04/08 05:53:08;;;;;;;35.40;18.58;;;;;;;9.22;83.81;102306.91;5088566;28;20026;-88
2023/04/08 05:55:34;;;;;;;41.03;21.23;;;;;;;9.24;84.72;102310.41;5105429;27;20400;-89
2023/04/08 05:57:59;;;;;;;42.38;20.63;;;;;;;9.34;84.14;102317.34;5082953;28;20021;-88
2023/04/08 06:00:25;;;;;;;56.45;22.17;;;;;;;9.37;83.83;102306.72;5083582;28;20108;-88
2023/04/08 06:02:50;;;;;;;39.55;19.88;;;;;;;9.30;83.88;102319.13;5087407;28;20024;-88
2023/04/08 06:05:16;;;;;;;39.05;19.52;;;;;;;9.31;83.79;102323.50;5077512;28;20028;-89
2023/04/08 06:07:41;;;;;;;48.65;20.90;;;;;;;9.32;83.65;102317.34;5082209;28;20542;-88
2023/04/08 06:10:07;;;;;;;39.63;18.92;;;;;;;9.34;84.30;102319.97;5078342;28;20032;-89
2023/04/08 06:12:38;;;;;;;35.15;18.73;;;;;;;9.38;83.55;102330.47;5078074;28;20305;-89
2023/04/08 06:15:04;;;;;;;43.67;20.60;;;;;;;9.44;83.33;102324.25;5080515;28;20066;-89
2023/04/08 06:17:30;;;;;;;41.33;20.45;;;;;;;9.46;83.22;102319.81;5089240;28;20052;-89
2023/04/08 06:19:55;;;;;;;40.70;20.20;;;;;;;9.56;82.92;102329.41;5080007;28;20529;-88
2023/04/08 06:22:20;;;;;;;42.30;20.63;;;;;;;9.65;83.20;102326.66;5078190;28;20035;-89
2023/04/08 06:24:47;;;;;;;39.28;20.42;;;;;;;9.63;82.80;102332.81;5083613;28;20016;-89
2023/04/08 06:27:12;;;;;;;38.25;20.45;;;;;;;9.64;82.43;102338.06;5078218;28;20541;-89
2023/04/08 06:29:37;;;;;;;42.83;20.90;;;;;;;9.65;82.74;102326.66;5081562;28;20028;-89
2023/04/08 06:32:03;;;;;;;38.15;19.30;;;;;;;9.70;82.23;102337.16;5085373;28;20115;-89
2023/04/08 06:34:28;;;;;;;40.42;20.83;;;;;;;9.74;82.29;102337.97;5084407;28;20101;-89
2023/04/08 06:36:53;;;;;;;36.22;18.13;;;;;;;9.79;80.80;102344.97;5071969;28;20522;-88
2023/04/08 06:39:20;;;;;;;37.97;20.15;;;;;;;9.82;80.91;102346.66;5071925;28;20032;-89
2023/04/08 06:41:45;;;;;;;36.50;19.23;;;;;;;10.09;80.90;102350.72;5075977;28;20025;-89
2023/04/08 06:44:10;;;;;;;35.40;18.90;;;;;;;9.98;80.53;102350.88;5086556;28;20028;-89
2023/04/08 06:46:36;;;;;;;43.35;21.77;;;;;;;9.99;80.31;102352.63;5088518;28;20024;-89
2023/04/08 06:49:03;;;;;;;40.25;19.25;;;;;;;9.95;79.81;102358.84;5083999;28;20040;-89
2023/04/08 06:51:28;;;;;;;33.72;17.65;;;;;;;9.92;78.67;102351.81;5084212;28;20025;-89
2023/04/08 06:53:53;;;;;;;35.38;17.42;;;;;;;9.95;78.20;102358.84;5085736;28;20122;-89
2023/04/08 06:56:21;;;;;;;50.22;17.58;;;;;;;9.96;78.69;102356.16;5079900;28;20020;-89
2023/04/08 06:58:46;;;;;;;40.13;16.75;;;;;;;10.04;78.70;102352.56;5091298;28;20028;-88
2023/04/08 07:01:12;;;;;;;31.52;17.25;;;;;;;10.10;78.18;102361.25;5087976;28;20463;-88
2023/04/08 07:03:37;;;;;;;31.92;17.55;;;;;;;10.06;77.90;102363.97;5078815;28;20028;-88
2023/04/08 07:06:03;;;;;;;32.67;16.58;;;;;;;10.07;77.37;102374.53;5080470;28;20025;-88
2023/04/08 07:08:28;;;;;;;34.17;17.70;;;;;;;10.14;76.90;102377.94;5100681;28;20027;-88
2023/04/08 07:10:54;;;;;;;30.05;16.10;;;;;;;10.18;76.87;102388.47;5087987;28;20044;-89
2023/04/08 07:13:19;;;;;;;28.05;15.88;;;;;;;10.15;77.35;102377.06;5094197;28;20039;-90
2023/04/08 07:15:44;;;;;;;29.25;16.17;;;;;;;10.12;77.72;102379.75;5084459;28;20029;-88
2023/04/08 07:18:11;;;;;;;30.65;16.65;;;;;;;10.04;77.02;102389.53;5082741;28;20525;-89
2023/04/08 07:20:37;;;;;;;30.15;16.05;;;;;;;9.93;77.73;102395.84;5076974;28;20021;-89
2023/04/08 07:23:02;;;;;;;27.40;15.88;;;;;;;9.94;77.26;102389.66;5076956;28;20031;-88
2023/04/08 07:25:28;;;;;;;27.38;15.35;;;;;;;10.14;76.99;102405.25;5080291;28;20024;-88
2023/04/08 07:27:53;;;;;;;31.38;17.10;;;;;;;10.18;77.97;102406.97;5079377;28;20012;-89
2023/04/08 07:30:18;;;;;;;29.38;16.90;;;;;;;10.25;77.80;102404.25;5079646;28;20269;-89
2023/04/08 07:32:44;;;;;;;29.38;17.80;;;;;;;10.21;77.43;102419.25;5075565;28;20039;-88
2023/04/08 07:35:09;;;;;;;28.67;14.98;;;;;;;10.23;76.95;102418.34;5082682;28;20193;-89
2023/04/08 07:37:35;;;;;;;28.10;15.80;;;;;;;10.22;77.31;102406.03;5081034;28;20432;-89
2023/04/08 07:40:00;;;;;;;27.38;15.95;;;;;;;10.15;77.01;102408.75;5092016;28;20049;-89
2023/04/08 07:42:26;;;;;;;28.90;15.65;;;;;;;10.18;77.08;102414.91;5088586;28;20077;-89
2023/04/08 07:44:51;;;;;;;25.48;14.73;;;;;;;10.36;77.10;102418.22;5086169;28;20528;-89
2023/04/08 07:47:16;;;;;;;29.88;15.93;;;;;;;10.32;77.20;102414.75;5075540;28;20030;-89
2023/04/08 07:49:44;;;;;;;28.98;16.02;;;;;;;10.43;75.99;102415.44;5071933;28;20027;-89
2023/04/08 07:52:10;;;;;;;28.45;15.45;;;;;;;10.48;76.21;102428.59;5085556;27;20025;-88
2023/04/08 07:54:35;;;;;;;29.45;16.52;;;;;;;10.48;75.81;102424.19;5074405;28;20016;-89
2023/04/08 07:57:01;;;;;;;30.23;16.60;;;;;;;10.44;76.49;102413.69;5078817;28;20020;-91
2023/04/08 07:59:26;;;;;;;30.33;17.15;;;;;;;10.48;75.83;102423.31;5082677;28;20043;-89
2023/04/08 08:01:51;;;;;;;27.90;16.10;;;;;;;10.49;75.39;102433.00;5088761;28;20475;-89
2023/04/08 08:04:17;;;;;;;29.23;17.00;;;;;;;10.40;76.61;102428.72;5079550;28;20466;-89
2023/04/08 08:06:42;;;;;;;30.10;17.17;;;;;;;10.45;76.05;102428.66;5083454;28;20391;-89
2023/04/08 08:09:07;;;;;;;29.95;15.75;;;;;;;10.47;76.23;102425.09;5076565;28;20098;-90
2023/04/08 08:11:33;;;;;;;31.58;15.55;;;;;;;10.59;75.91;102444.34;5077735;28;20067;-89
2023/04/08 08:13:58;;;;;;;27.85;15.15;;;;;;;10.54;75.97;102439.13;5083762;28;20372;-89
2023/04/08 08:16:27;;;;;;;30.58;17.48;;;;;;;10.51;76.15;102440.94;5088111;28;20035;-88
2023/04/08 08:18:52;;;;;;;29.33;16.88;;;;;;;10.49;75.90;102443.56;5078033;28;20033;-89
2023/04/08 08:21:18;;;;;;;30.35;16.70;;;;;;;10.48;75.87;102444.47;5082293;28;20035;-89
2023/04/08 08:23:43;;;;;;;31.45;16.98;;;;;;;10.48;76.51;102444.47;5089593;28;20475;-88
2023/04/08 08:26:09;;;;;;;27.58;16.17;;;;;;;10.50;75.28;102440.06;5081376;28;20024;-89
2023/04/08 08:28:35;;;;;;;34.00;16.88;;;;;;;10.51;75.90;102447.09;5083857;28;20035;-89
2023/04/08 08:31:02;;;;;;;26.73;15.45;;;;;;;10.66;75.49;102453.91;5091725;28;20023;-88
2023/04/08 08:33:27;;;;;;;29.52;16.08;;;;;;;10.75;74.82;102455.56;5083608;28;20562;-90
2023/04/08 08:35:52;;;;;;;31.98;17.20;;;;;;;10.80;74.67;102448.41;5078782;28;20177;-89
2023/04/08 08:38:18;;;;;;;29.92;16.55;;;;;;;10.84;74.71;102458.06;5069375;28;20335;-89
2023/04/08 08:40:44;;;;;;;30.85;17.52;;;;;;;10.82;74.74;102465.13;5087223;28;20495;-89
2023/04/08 08:43:10;;;;;;;30.70;17.30;;;;;;;10.80;75.49;102462.53;5087693;28;20076;-89
2023/04/08 08:45:40;;;;;;;31.63;17.75;;;;;;;10.70;75.05;102467.06;5087794;28;20123;-90
2023/04/08 08:48:07;;;;;;;29.55;16.60;;;;;;;10.69;74.74;102465.34;5083864;28;20123;-90
2023/04/08 08:50:33;;;;;;;27.70;16.10;;;;;;;10.81;75.31;102474.84;5086011;28;21080;-89
2023/04/08 08:52:58;;;;;;;33.70;16.85;;;;;;;10.93;75.03;102474.66;5093001;28;20055;-90
2023/04/08 08:55:23;;;;;;;30.60;16.75;;;;;;;11.03;74.30;102474.53;5074267;28;20028;-90
2023/04/08 08:57:50;;;;;;;29.38;17.92;;;;;;;11.07;73.94;102477.09;5078398;28;20020;-90
2023/04/08 09:00:16;;;;;;;32.13;18.15;;;;;;;11.06;74.97;102478.00;5080468;28;20040;-89
2023/04/08 09:02:41;;;;;;;31.48;16.02;;;;;;;11.11;74.54;102477.94;5079916;28;20502;-89
2023/04/08 09:05:07;;;;;;;30.88;18.15;;;;;;;11.07;73.81;102474.44;5083694;28;20036;-90
2023/04/08 09:07:39;;;;;;;28.70;16.70;;;;;;;11.07;73.67;102485.03;5087447;28;20021;-90
2023/04/08 09:10:05;;;;;;;31.00;17.70;;;;;;;11.05;73.25;102485.94;5091414;28;20024;-89
2023/04/08 09:12:30;;;;;;;29.75;16.63;;;;;;;11.05;73.78;102485.94;5083860;28;20058;-91
2023/04/08 09:15:06;;;;;;;30.48;17.02;;;;;;;11.27;73.78;102491.78;5099205;28;20103;-90
2023/04/08 09:17:37;;;;;;;28.33;16.67;;;;;;;11.34;72.83;102482.84;5085021;28;20123;-90
2023/04/08 09:20:11;;;;;;;29.33;17.77;;;;;;;11.56;72.77;102500.09;5084956;28;20035;-89
2023/04/08 09:22:56;;;;;;;29.92;16.75;;;;;;;11.67;72.99;102494.63;5080124;28;20365;-90
2023/04/08 09:25:26;;;;;;;32.88;16.20;;;;;;;11.60;72.16;102488.53;5085687;28;20065;-89
2023/04/08 09:27:52;;;;;;;29.50;16.80;;;;;;;11.72;72.21;102492.75;5091532;28;20063;-89
2023/04/08 09:30:18;;;;;;;30.13;17.98;;;;;;;11.69;71.69;102491.03;5083359;28;20103;-89
2023/04/08 09:32:48;;;;;;;26.75;16.70;;;;;;;11.57;72.66;102491.28;5082186;28;20538;-89
2023/04/08 09:35:15;;;;;;;29.63;17.83;;;;;;;11.59;72.22;102496.53;5080314;28;20027;-90
2023/04/08 09:37:41;;;;;;;31.92;18.50;;;;;;;11.57;72.11;102503.63;5086444;28;20020;-89
2023/04/08 09:40:07;;;;;;;27.65;16.60;;;;;;;11.52;72.70;102501.06;5077451;28;20433;-90
2023/04/08 09:42:35;;;;;;;29.17;17.65;;;;;;;11.53;72.57;102502.81;5072240;28;20033;-90
2023/04/08 09:45:03;;;;;;;27.63;17.13;;;;;;;11.57;71.23;102504.50;5076344;28;20024;-90
2023/04/08 09:47:37;;;;;;;30.27;16.88;;;;;;;11.63;72.18;102499.09;5081669;28;20419;-90
2023/04/08 09:50:07;;;;;;;25.88;16.98;;;;;;;11.75;71.78;102512.13;5073327;28;20055;-89
2023/04/08 09:52:42;;;;;;;27.00;17.48;;;;;;;11.90;71.86;102511.00;5095475;28;20069;-89
2023/04/08 09:55:08;;;;;;;28.58;17.05;;;;;;;11.99;70.72;102521.44;5075025;28;20032;-88
2023/04/08 09:57:50;;;;;;;22.60;14.95;;;;;;;12.14;71.04;102516.72;5074267;28;20602;-89
2023/04/08 10:00:16;;;;;;;24.45;16.42;;;;;;;12.46;70.35;102513.41;5078406;28;20036;-89
2023/04/08 10:02:55;;;;;;;27.67;16.73;;;;;;;12.74;69.96;102506.59;5081389;28;20021;-89
2023/04/08 10:05:23;;;;;;;25.20;16.80;;;;;;;12.85;68.38;102510.78;5074992;28;20395;-89
2023/04/08 10:07:49;;;;;;;27.10;16.30;;;;;;;12.69;68.34;102508.50;5075868;28;20479;-89
2023/04/08 10:10:15;;;;;;;25.30;16.95;;;;;;;12.62;67.61;102520.13;5080690;28;20036;-89
2023/04/08 10:12:41;;;;;;;22.15;16.05;;;;;;;12.62;67.23;102517.47;5078436;28;20050;-89
2023/04/08 10:15:26;;;;;;;23.33;16.35;;;;;;;12.80;68.28;102512.69;5076604;28;20025;-88
2023/04/08 10:17:55;;;;;;;20.90;15.27;;;;;;;12.88;66.42;102516.03;5074347;28;20510;-89
2023/04/08 10:20:33;;;;;;;23.38;15.65;;;;;;;13.14;66.33;102512.75;5085518;28;20032;-88
2023/04/08 10:22:58;;;;;;;22.45;16.10;;;;;;;13.66;65.35;102514.13;5079329;28;20031;-90
2023/04/08 10:25:36;;;;;;;22.40;17.33;;;;;;;14.30;64.01;102510.56;5083071;28;20031;-89
2023/04/08 10:28:10;;;;;;;22.20;16.90;;;;;;;14.72;63.19;102501.38;5096103;28;20012;-90
2023/04/08 10:30:49;;;;;;;22.92;16.33;;;;;;;14.80;64.30;102508.22;5085832;28;20032;-90
2023/04/08 10:33:14;;;;;;;19.80;14.88;;;;;;;14.66;61.67;102507.78;5091160;28;20035;-89
2023/04/08 10:35:45;;;;;;;21.88;15.88;;;;;;;14.19;62.44;102501.16;5072833;28;20032;-89
2023/04/08 10:38:12;;;;;;;22.23;15.95;;;;;;;13.93;62.27;102516.03;5086611;28;20491;-89
2023/04/08 10:40:41;;;;;;;21.35;16.20;;;;;;;13.84;64.33;102510.13;5082868;28;20028;-90
2023/04/08 10:43:09;;;;;;;22.77;15.55;;;;;;;14.22;63.46;102503.72;5084472;28;20491;-88
2023/04/08 10:45:34;;;;;;;21.90;17.23;;;;;;;14.68;62.88;102492.59;5087376;28;20032;-89
2023/04/08 10:48:13;;;;;;;21.95;15.77;;;;;;;15.74;60.99;102495.34;5080412;28;20103;-90
2023/04/08 10:50:39;;;;;;;20.92;16.50;;;;;;;16.15;59.28;102490.31;5091976;28;20456;-89
2023/04/08 10:53:06;;;;;;;22.75;16.85;;;;;;;16.00;57.93;102486.41;5093546;28;20063;-89
2023/04/08 10:55:32;;;;;;;21.77;15.73;;;;;;;15.92;55.47;102476.94;5080714;28;20020;-89
2023/04/08 10:58:05;;;;;;;24.02;17.02;;;;;;;16.50;57.81;102477.41;5074916;28;20119;-90
2023/04/08 11:00:36;;;;;;;22.02;16.23;;;;;;;16.44;56.62;102470.53;5084119;28;20051;-90
2023/04/08 11:03:07;;;;;;;19.25;16.08;;;;;;;16.40;55.25;102482.25;5080704;28;20077;-88
2023/04/08 11:05:33;;;;;;;22.30;16.05;;;;;;;16.67;55.60;102477.63;5082458;28;20036;-89
2023/04/08 11:07:59;;;;;;;22.33;16.83;;;;;;;17.25;54.84;102483.31;5092006;28;20498;-89
2023/04/08 11:10:26;;;;;;;24.50;16.23;;;;;;;17.66;54.84;102486.00;5083328;28;20062;-88
2023/04/08 11:12:56;;;;;;;19.48;15.48;;;;;;;17.73;51.78;102486.63;5081478;28;20090;-89